Time;durP1;ratioP1;P1;durP2;ratioP2;P2;SDS_P1;SDS_P2;PMS_P1;PMS_P2;Temp;Humidity;BMP_temperature;BMP_pressure;BME280_temperature;BME280_humidity;BME280_pressure;Samples;Min_cycle;Max_cycle;Signal;HPM_P1;HPM_P2
2021/04/16 00:00:52;;;;;;;0.73;0.73;;;5.00;99.90;;;;;;5049223;28;20213;-83
2021/04/16 00:03:19;;;;;;;0.70;0.70;;;5.00;99.90;;;;;;5051723;28;20213;-82
2021/04/16 00:05:45;;;;;;;0.43;0.43;;;5.00;99.90;;;;;;5035527;28;20291;-83
2021/04/16 00:08:18;;;;;;;0.50;0.50;;;5.00;99.90;;;;;;5020043;28;20683;-84
2021/04/16 00:11:03;;;;;;;0.87;0.70;;;5.00;99.90;;;;;;5046964;28;20227;-84
2021/04/16 00:13:29;;;;;;;0.53;0.53;;;5.10;99.90;;;;;;5051028;28;20216;-83
2021/04/16 00:15:55;;;;;;;1.60;0.50;;;5.10;99.90;;;;;;5036627;28;20209;-83
2021/04/16 00:18:26;;;;;;;0.37;0.37;;;5.10;99.90;;;;;;5033225;28;20236;-83
2021/04/16 00:20:53;;;;;;;0.50;0.50;;;5.10;99.90;;;;;;5047456;28;20220;-83
2021/04/16 00:23:19;;;;;;;4.50;0.70;;;5.00;99.90;;;;;;5049918;28;20211;-83
2021/04/16 00:25:45;;;;;;;0.33;0.33;;;5.00;99.90;;;;;;5035410;28;20689;-82
2021/04/16 00:28:12;;;;;;;2.07;0.63;;;5.10;99.90;;;;;;5051937;28;20251;-83
2021/04/16 00:30:44;;;;;;;1.10;1.10;;;5.10;99.90;;;;;;5051553;28;20255;-82
2021/04/16 00:33:11;;;;;;;1.70;0.50;;;5.00;99.90;;;;;;5054336;28;20205;-83
2021/04/16 00:35:38;;;;;;;1.40;0.77;;;5.00;99.90;;;;;;5051439;28;20195;-82
2021/04/16 00:38:05;;;;;;;1.07;0.63;;;5.00;99.90;;;;;;5070959;28;20205;-82
2021/04/16 00:40:38;;;;;;;3.53;0.80;;;5.00;99.90;;;;;;5034865;28;20596;-84
2021/04/16 00:43:05;;;;;;;0.57;0.50;;;5.10;99.90;;;;;;5069242;28;20223;-82
2021/04/16 00:45:33;;;;;;;0.33;0.33;;;5.00;99.90;;;;;;5035517;28;20275;-82
2021/04/16 00:48:02;;;;;;;0.83;0.83;;;5.00;99.90;;;;;;5049828;28;20224;-83
2021/04/16 00:50:37;;;;;;;0.93;0.93;;;5.00;99.90;;;;;;5069154;28;20242;-84
2021/04/16 00:53:03;;;;;;;1.00;0.90;;;4.90;99.90;;;;;;5070003;28;20176;-83
2021/04/16 00:55:30;;;;;;;0.97;0.83;;;4.90;99.90;;;;;;5050593;28;20227;-82
2021/04/16 00:57:56;;;;;;;0.80;0.80;;;5.00;99.90;;;;;;5052803;28;20221;-82
2021/04/16 01:00:24;;;;;;;0.57;0.57;;;5.00;99.90;;;;;;5035646;28;20255;-83
2021/04/16 01:02:50;;;;;;;0.83;0.83;;;5.00;99.90;;;;;;5053245;28;20224;-82
2021/04/16 01:05:17;;;;;;;0.80;0.60;;;5.00;99.90;;;;;;5020259;28;20188;-81
2021/04/16 01:07:42;;;;;;;1.90;0.63;;;5.00;99.90;;;;;;5050216;28;20219;-84
2021/04/16 01:10:09;;;;;;;0.60;0.60;;;4.90;99.90;;;;;;5069344;28;20216;-83
2021/04/16 01:12:35;;;;;;;0.70;0.70;;;4.90;99.90;;;;;;5071038;28;20208;-82
2021/04/16 01:15:14;;;;;;;0.97;0.97;;;4.90;99.90;;;;;;5051849;28;20231;-83
2021/04/16 01:17:42;;;;;;;3.80;1.37;;;4.90;99.90;;;;;;5066859;28;21843;-82
2021/04/16 01:20:14;;;;;;;1.20;1.10;;;4.90;99.90;;;;;;5052517;28;20197;-82
2021/04/16 01:23:11;;;;;;;1.23;1.10;;;4.90;99.90;;;;;;5052703;28;20244;-84
2021/04/16 01:25:37;;;;;;;2.93;0.83;;;4.80;99.90;;;;;;5067180;28;20224;-84
2021/04/16 01:28:04;;;;;;;1.37;1.27;;;4.80;99.90;;;;;;5051760;28;20620;-84
2021/04/16 01:30:31;;;;;;;0.40;0.40;;;4.80;99.90;;;;;;5038857;28;20231;-82
2021/04/16 01:32:58;;;;;;;1.17;1.07;;;4.80;99.90;;;;;;5040565;28;20251;-84
2021/04/16 01:35:34;;;;;;;1.37;1.27;;;4.70;99.90;;;;;;5056422;28;20181;-85
2021/04/16 01:38:05;;;;;;;0.60;0.60;;;4.70;99.90;;;;;;5058880;28;20358;-84
2021/04/16 01:40:31;;;;;;;0.70;0.70;;;4.70;99.90;;;;;;5054063;28;20257;-84
2021/04/16 01:42:56;;;;;;;0.53;0.53;;;4.70;99.90;;;;;;5075819;28;20570;-84
2021/04/16 01:45:28;;;;;;;2.67;1.47;;;4.60;99.90;;;;;;5036044;28;20217;-84
2021/04/16 01:48:00;;;;;;;1.20;1.10;;;4.60;99.90;;;;;;5053696;28;20225;-84
2021/04/16 01:50:26;;;;;;;0.50;0.50;;;4.50;99.90;;;;;;5052011;28;20185;-83
2021/04/16 01:52:52;;;;;;;27.83;1.27;;;4.50;99.90;;;;;;5055451;28;20270;-83
2021/04/16 01:55:19;;;;;;;0.47;0.47;;;4.50;99.90;;;;;;5020241;28;20745;-85
2021/04/16 01:57:46;;;;;;;8.77;1.70;;;4.50;99.90;;;;;;5054778;28;20292;-83
2021/04/16 02:00:15;;;;;;;1.17;0.97;;;4.50;99.90;;;;;;5072544;28;20615;-83
2021/04/16 02:02:41;;;;;;;0.93;0.93;;;4.50;99.90;;;;;;5053858;28;20221;-83
2021/04/16 02:05:07;;;;;;;1.30;0.80;;;4.50;99.90;;;;;;5039909;28;21281;-84
2021/04/16 02:07:33;;;;;;;1.00;1.00;;;4.50;99.90;;;;;;5073295;28;20213;-83
2021/04/16 02:09:59;;;;;;;1.17;1.00;;;4.50;99.90;;;;;;5021131;28;20217;-83
2021/04/16 02:12:25;;;;;;;7.13;0.90;;;4.50;99.90;;;;;;5036759;28;20219;-83
2021/04/16 02:14:52;;;;;;;0.90;0.90;;;4.50;99.90;;;;;;5071661;28;20225;-83
2021/04/16 02:17:26;;;;;;;1.43;1.33;;;4.50;99.90;;;;;;5040345;28;20190;-83
2021/04/16 02:19:53;;;;;;;3.23;2.10;;;4.50;99.90;;;;;;5057016;28;20228;-83
2021/04/16 02:22:22;;;;;;;4.40;1.00;;;4.60;99.90;;;;;;5055587;28;20217;-84
2021/04/16 02:24:48;;;;;;;0.87;0.87;;;4.50;99.90;;;;;;5052503;28;20220;-84
2021/04/16 02:27:16;;;;;;;0.70;0.70;;;4.60;99.90;;;;;;5054853;28;20228;-84
2021/04/16 02:29:42;;;;;;;0.53;0.53;;;4.60;99.90;;;;;;5069733;28;20226;-84
2021/04/16 02:32:08;;;;;;;0.73;0.73;;;4.50;99.90;;;;;;5039370;28;20192;-84
2021/04/16 02:34:34;;;;;;;2.03;1.17;;;4.50;99.90;;;;;;5072283;28;20216;-84
2021/04/16 02:37:07;;;;;;;0.50;0.50;;;4.50;99.90;;;;;;5054232;28;20693;-84
2021/04/16 02:39:34;;;;;;;1.43;1.13;;;4.50;99.90;;;;;;5066895;28;20229;-84
2021/04/16 02:41:59;;;;;;;0.50;0.50;;;4.50;99.90;;;;;;5066429;28;20229;-84
2021/04/16 02:44:26;;;;;;;0.80;0.73;;;4.40;99.90;;;;;;5051819;28;20188;-84
2021/04/16 02:46:53;;;;;;;0.50;0.50;;;4.40;99.90;;;;;;5058284;28;20269;-85
2021/04/16 02:49:20;;;;;;;0.83;0.83;;;4.40;99.90;;;;;;5038548;28;20228;-83
2021/04/16 02:51:46;;;;;;;0.97;0.80;;;4.40;99.90;;;;;;5038131;28;20213;-83
2021/04/16 02:54:12;;;;;;;0.50;0.37;;;4.40;99.90;;;;;;5052688;28;20229;-84
2021/04/16 02:56:38;;;;;;;2.80;1.23;;;4.40;99.90;;;;;;5024338;28;20185;-84
2021/04/16 02:59:04;;;;;;;5.13;1.57;;;4.40;99.90;;;;;;5038806;28;20686;-83
2021/04/16 03:01:30;;;;;;;1.03;0.80;;;4.40;99.90;;;;;;5052207;28;20217;-83
2021/04/16 03:03:56;;;;;;;0.80;0.67;;;4.40;99.90;;;;;;5036556;28;20254;-83
2021/04/16 03:06:22;;;;;;;1.13;1.10;;;4.40;99.90;;;;;;5036254;28;20217;-83
2021/04/16 03:08:57;;;;;;;0.60;0.60;;;4.40;99.90;;;;;;5055427;28;20220;-83
2021/04/16 03:11:25;;;;;;;2.10;1.47;;;4.40;99.90;;;;;;5053920;28;21121;-82
2021/04/16 03:13:50;;;;;;;3.53;1.00;;;4.40;99.90;;;;;;5040306;28;21372;-82
2021/04/16 03:16:17;;;;;;;1.10;1.10;;;4.40;99.90;;;;;;5038219;28;20240;-82
2021/04/16 03:18:43;;;;;;;1.03;0.93;;;4.40;99.90;;;;;;5021934;28;20231;-81
2021/04/16 03:21:09;;;;;;;1.33;0.90;;;4.40;99.90;;;;;;5052758;28;20209;-82
2021/04/16 03:23:34;;;;;;;1.57;0.67;;;4.30;99.90;;;;;;5036752;28;20206;-84
2021/04/16 03:26:00;;;;;;;1.83;1.33;;;4.30;99.90;;;;;;5052198;28;20602;-82
2021/04/16 03:28:26;;;;;;;1.40;1.10;;;4.30;99.90;;;;;;5036835;28;20272;-81
2021/04/16 03:30:52;;;;;;;2.13;0.67;;;4.30;99.90;;;;;;5052288;28;21117;-81
2021/04/16 03:33:19;;;;;;;0.60;0.60;;;4.20;99.90;;;;;;5053024;28;20225;-82
2021/04/16 03:35:45;;;;;;;0.40;0.40;;;4.10;99.90;;;;;;5053096;28;20342;-81
2021/04/16 03:38:11;;;;;;;0.40;0.40;;;4.10;99.90;;;;;;5035593;28;20225;-82
2021/04/16 03:40:37;;;;;;;3.47;1.07;;;4.10;99.90;;;;;;5069187;28;20679;-84
2021/04/16 03:43:03;;;;;;;1.13;0.50;;;4.10;99.90;;;;;;5070066;28;20271;-82
2021/04/16 03:45:29;;;;;;;0.40;0.40;;;4.00;99.90;;;;;;5052683;28;21180;-82
2021/04/16 03:47:55;;;;;;;0.50;0.50;;;4.00;99.90;;;;;;5035812;28;20225;-83
2021/04/16 03:50:25;;;;;;;8.17;0.83;;;4.00;99.90;;;;;;5037841;28;20193;-82
2021/04/16 03:52:50;;;;;;;0.50;0.50;;;4.00;99.90;;;;;;5051441;28;20216;-82
2021/04/16 03:55:19;;;;;;;1.00;0.83;;;4.10;99.90;;;;;;5032015;28;20216;-83
2021/04/16 03:57:45;;;;;;;0.97;0.30;;;4.10;99.90;;;;;;5049792;28;20694;-82
2021/04/16 04:00:13;;;;;;;1.57;1.57;;;4.00;99.90;;;;;;5030778;28;20254;-83
2021/04/16 04:02:39;;;;;;;1.07;1.07;;;4.00;99.90;;;;;;5046849;28;20259;-81
2021/04/16 04:05:06;;;;;;;0.87;0.87;;;4.00;99.90;;;;;;5051089;28;20255;-83
2021/04/16 04:07:32;;;;;;;0.57;0.57;;;4.00;99.90;;;;;;5034283;28;20216;-83
2021/04/16 04:09:58;;;;;;;0.67;0.63;;;4.00;99.90;;;;;;5034181;28;20311;-83
2021/04/16 04:12:24;;;;;;;1.43;0.87;;;4.00;99.90;;;;;;4974005;28;20214;-83
2021/04/16 04:14:49;;;;;;;1.03;0.90;;;4.10;99.90;;;;;;5050356;28;20281;-83
2021/04/16 04:17:33;;;;;;;1.13;1.03;;;4.00;99.90;;;;;;5054034;28;20189;-83
2021/04/16 04:19:59;;;;;;;2.83;1.60;;;4.00;99.90;;;;;;5052292;28;20231;-84
2021/04/16 04:22:26;;;;;;;0.73;0.73;;;3.90;99.90;;;;;;5044678;28;20308;-82
2021/04/16 04:24:52;;;;;;;3.10;0.93;;;4.00;99.90;;;;;;5052290;28;20232;-82
2021/04/16 04:27:19;;;;;;;0.50;0.50;;;3.90;99.90;;;;;;5035804;28;20220;-82
2021/04/16 04:29:45;;;;;;;1.57;1.33;;;3.90;99.90;;;;;;5051805;28;20227;-83
2021/04/16 04:32:11;;;;;;;0.67;0.67;;;3.90;99.90;;;;;;5053301;28;20310;-82
2021/04/16 04:34:37;;;;;;;0.83;0.83;;;3.90;99.90;;;;;;5051826;28;20997;-82
2021/04/16 04:37:04;;;;;;;3.03;2.27;;;3.80;99.90;;;;;;5050368;28;20216;-83
2021/04/16 04:39:34;;;;;;;2.10;0.80;;;3.80;99.90;;;;;;5033061;28;20224;-83
2021/04/16 04:42:01;;;;;;;0.70;0.70;;;3.80;99.90;;;;;;5049337;28;20217;-81
2021/04/16 04:44:27;;;;;;;0.87;0.87;;;3.80;99.90;;;;;;5033321;28;20189;-82
2021/04/16 04:46:53;;;;;;;0.80;0.77;;;3.90;99.90;;;;;;5037282;28;20189;-82
2021/04/16 04:49:22;;;;;;;0.60;0.60;;;3.80;99.90;;;;;;5051508;28;20236;-82
2021/04/16 04:51:49;;;;;;;0.63;0.63;;;3.90;99.90;;;;;;5052717;28;20223;-82
2021/04/16 04:54:15;;;;;;;0.50;0.50;;;3.90;99.90;;;;;;5050807;28;22063;-82
2021/04/16 04:56:41;;;;;;;0.60;0.60;;;4.00;99.90;;;;;;5069726;28;20189;-82
2021/04/16 04:59:08;;;;;;;2.80;2.27;;;4.20;99.90;;;;;;5050990;28;20248;-82
2021/04/16 05:01:34;;;;;;;0.97;0.87;;;4.30;99.90;;;;;;5030112;28;20240;-83
2021/04/16 05:04:00;;;;;;;2.07;0.87;;;4.40;99.90;;;;;;5067369;28;20204;-82
2021/04/16 05:06:26;;;;;;;0.50;0.50;;;4.40;99.90;;;;;;5056348;28;20216;-82
2021/04/16 05:08:52;;;;;;;1.93;1.83;;;4.50;99.90;;;;;;5058047;28;20670;-82
2021/04/16 05:11:18;;;;;;;5.27;1.77;;;4.50;99.90;;;;;;5041443;28;20189;-82
2021/04/16 05:13:50;;;;;;;0.77;0.77;;;4.70;99.90;;;;;;5040951;28;20286;-83
2021/04/16 05:16:16;;;;;;;1.27;1.17;;;4.80;99.90;;;;;;5055063;28;20216;-83
2021/04/16 05:18:41;;;;;;;0.70;0.70;;;5.20;99.90;;;;;;5053406;28;20579;-83
2021/04/16 05:21:07;;;;;;;2.10;1.90;;;5.50;99.90;;;;;;5023559;28;20558;-83
2021/04/16 05:23:33;;;;;;;1.37;1.23;;;6.00;99.90;;;;;;5052508;28;20193;-83
2021/04/16 05:25:58;;;;;;;2.40;1.63;;;6.60;99.90;;;;;;5038703;28;20634;-83
2021/04/16 05:28:24;;;;;;;1.13;0.90;;;7.60;99.90;;;;;;5036697;28;20274;-83
2021/04/16 05:30:50;;;;;;;2.20;0.80;;;8.10;99.90;;;;;;5036029;28;20316;-84
2021/04/16 05:33:17;;;;;;;4.37;1.77;;;8.40;99.90;;;;;;5045809;28;20592;-82
2021/04/16 05:35:43;;;;;;;0.90;0.90;;;9.30;99.90;;;;;;5022742;28;20209;-82
2021/04/16 05:38:09;;;;;;;1.23;1.07;;;10.20;99.90;;;;;;5073820;28;20191;-82
2021/04/16 05:40:35;;;;;;;3.73;1.10;;;11.40;99.90;;;;;;5052160;28;20225;-82
2021/04/16 05:43:01;;;;;;;6.30;1.17;;;12.80;99.90;;;;;;5038263;28;20213;-82
2021/04/16 05:45:27;;;;;;;3.00;1.03;;;13.60;99.90;;;;;;5038659;28;20704;-81
2021/04/16 05:47:53;;;;;;;3.10;1.03;;;14.30;99.90;;;;;;5021257;28;20321;-82
2021/04/16 05:50:19;;;;;;;2.30;1.20;;;15.00;99.90;;;;;;5075963;28;20298;-84
2021/04/16 05:52:45;;;;;;;1.07;0.97;;;15.50;99.90;;;;;;5051918;28;20700;-82
2021/04/16 05:55:12;;;;;;;4.23;1.10;;;15.90;99.90;;;;;;5070600;28;20225;-82
2021/04/16 05:57:38;;;;;;;5.07;1.27;;;16.00;99.90;;;;;;5038030;28;20633;-83
2021/04/16 06:00:06;;;;;;;2.13;1.40;;;16.10;99.90;;;;;;5036116;28;20690;-83
2021/04/16 06:02:33;;;;;;;2.90;1.47;;;16.00;99.90;;;;;;5069577;28;20212;-83
2021/04/16 06:05:02;;;;;;;6.03;0.97;;;17.30;99.90;;;;;;5074385;28;20703;-85
2021/04/16 06:07:31;;;;;;;1.30;1.20;;;18.00;99.90;;;;;;5069831;28;20229;-84
2021/04/16 06:09:57;;;;;;;2.77;0.87;;;18.30;99.90;;;;;;5069722;28;20318;-83
2021/04/16 06:12:24;;;;;;;2.17;1.10;;;17.70;99.90;;;;;;5051904;28;20213;-82
2021/04/16 06:14:50;;;;;;;1.43;0.73;;;18.20;99.90;;;;;;5052836;28;20808;-84
2021/04/16 06:17:17;;;;;;;6.83;1.33;;;17.70;99.90;;;;;;5056351;28;20273;-82
2021/04/16 06:19:45;;;;;;;8.27;1.07;;;18.10;99.90;;;;;;5053761;28;20216;-83
2021/04/16 06:22:11;;;;;;;4.50;1.67;;;18.40;99.90;;;;;;5055082;28;20221;-83
2021/04/16 06:24:37;;;;;;;4.97;1.00;;;17.90;99.90;;;;;;5038798;28;20247;-82
2021/04/16 06:27:04;;;;;;;5.63;1.70;;;18.10;99.90;;;;;;5035936;28;20211;-82
2021/04/16 06:29:31;;;;;;;1.57;1.47;;;18.20;99.90;;;;;;5048826;28;20239;-82
2021/04/16 06:31:57;;;;;;;1.13;0.90;;;18.20;99.90;;;;;;5048522;28;20194;-82
2021/04/16 06:34:23;;;;;;;2.37;0.77;;;17.50;99.90;;;;;;5031700;28;20622;-82
2021/04/16 06:36:50;;;;;;;7.77;1.50;;;17.00;99.90;;;;;;5049304;28;20213;-83
2021/04/16 06:39:16;;;;;;;8.70;1.37;;;16.60;99.90;;;;;;5031064;28;20446;-81
2021/04/16 06:41:49;;;;;;;5.70;1.30;;;16.60;99.90;;;;;;5032195;28;20653;-82
2021/04/16 06:44:23;;;;;;;4.47;1.47;;;15.80;99.90;;;;;;5034480;28;20251;-81
2021/04/16 06:46:52;;;;;;;5.33;2.30;;;15.40;99.90;;;;;;5049875;28;20318;-81
2021/04/16 06:49:26;;;;;;;3.20;1.37;;;15.30;99.90;;;;;;5048926;28;20221;-83
2021/04/16 06:52:04;;;;;;;2.70;1.60;;;16.40;99.90;;;;;;5048897;28;20855;-82
2021/04/16 06:54:50;;;;;;;8.07;1.40;;;17.30;99.90;;;;;;5045815;28;20213;-82
2021/04/16 06:57:28;;;;;;;4.30;1.50;;;18.00;99.90;;;;;;5049785;28;20218;-83
2021/04/16 07:00:20;;;;;;;9.33;1.87;;;19.20;99.90;;;;;;5048296;28;20235;-82
2021/04/16 07:03:06;;;;;;;5.20;1.40;;;19.40;99.90;;;;;;5055314;28;20734;-84
2021/04/16 07:05:36;;;;;;;1.90;1.03;;;19.30;99.90;;;;;;5051860;28;20197;-82
2021/04/16 07:08:03;;;;;;;2.63;1.10;;;18.70;99.90;;;;;;5053306;28;20247;-83
2021/04/16 07:10:33;;;;;;;5.20;1.83;;;18.80;99.90;;;;;;5049757;28;20218;-84
2021/04/16 07:13:01;;;;;;;2.47;1.37;;;19.00;99.90;;;;;;5049648;28;20685;-82
2021/04/16 07:15:40;;;;;;;3.50;1.40;;;19.40;99.90;;;;;;5029255;28;20249;-82
2021/04/16 07:18:07;;;;;;;2.47;1.53;;;20.10;99.90;;;;;;5047288;28;20213;-82
2021/04/16 07:20:34;;;;;;;8.23;1.73;;;19.80;99.90;;;;;;5024728;28;20529;-83
2021/04/16 07:23:01;;;;;;;2.77;1.37;;;19.80;99.90;;;;;;5062595;28;20253;-83
2021/04/16 07:25:46;;;;;;;4.60;1.30;;;20.30;99.90;;;;;;5047646;28;20272;-82
2021/04/16 07:28:33;;;;;;;4.80;1.53;;;20.60;99.90;;;;;;5049873;28;20327;-83
2021/04/16 07:30:59;;;;;;;1.57;1.47;;;19.90;99.90;;;;;;5048944;28;21095;-83
2021/04/16 07:33:32;;;;;;;2.90;1.83;;;19.70;99.90;;;;;;5032496;28;20552;-84
2021/04/16 07:36:17;;;;;;;3.47;1.47;;;19.90;99.90;;;;;;5048695;28;20216;-83
2021/04/16 07:38:43;;;;;;;3.43;1.17;;;19.70;99.90;;;;;;5048114;28;20622;-82
2021/04/16 07:41:27;;;;;;;7.50;1.37;;;19.20;99.90;;;;;;5029850;28;20217;-83
2021/04/16 07:43:56;;;;;;;5.60;1.60;;;18.70;99.90;;;;;;5047349;28;20247;-84
2021/04/16 07:46:30;;;;;;;4.40;1.47;;;18.90;99.90;;;;;;5049319;28;20296;-83
2021/04/16 07:49:14;;;;;;;4.57;1.50;;;18.60;99.90;;;;;;5049022;28;20189;-82
2021/04/16 07:51:43;;;;;;;3.30;1.13;;;19.60;99.90;;;;;;5049001;28;20233;-82
2021/04/16 07:54:23;;;;;;;4.77;1.27;;;20.20;99.90;;;;;;5043946;28;20328;-83
2021/04/16 07:57:06;;;;;;;5.90;1.60;;;21.00;99.90;;;;;;5050934;28;20304;-83
2021/04/16 08:00:04;;;;;;;1.97;1.07;;;20.60;99.90;;;;;;5046694;28;20676;-82
2021/04/16 08:02:42;;;;;;;2.83;1.43;;;19.70;99.40;;;;;;5048749;28;20216;-82
2021/04/16 08:05:26;;;;;;;2.53;1.50;;;18.00;99.90;;;;;;5056457;28;20325;-83
2021/04/16 08:08:16;;;;;;;3.20;1.30;;;17.70;99.90;;;;;;5047638;28;20256;-81
2021/04/16 08:10:44;;;;;;;1.30;1.20;;;16.90;99.90;;;;;;5049639;28;20246;-83
2021/04/16 08:13:56;;;;;;;2.47;1.73;;;17.60;99.90;;;;;;5027100;28;20194;-83
2021/04/16 08:16:30;;;;;;;5.13;1.50;;;17.20;99.90;;;;;;5022348;28;20225;-82
2021/04/16 08:19:35;;;;;;;2.07;1.17;;;16.80;99.90;;;;;;5046907;28;20250;-83
2021/04/16 08:22:09;;;;;;;2.33;1.00;;;17.70;99.90;;;;;;5050744;28;20231;-83
2021/04/16 08:24:55;;;;;;;2.80;1.43;;;17.90;99.90;;;;;;5047999;28;20197;-84
2021/04/16 08:27:43;;;;;;;3.27;1.00;;;16.90;99.90;;;;;;5048351;28;20225;-82
2021/04/16 08:30:24;;;;;;;2.90;1.53;;;17.40;99.90;;;;;;5046733;28;20232;-83
2021/04/16 08:32:59;;;;;;;1.27;1.17;;;17.30;99.90;;;;;;5045426;28;20213;-82
2021/04/16 08:35:39;;;;;;;1.27;1.10;;;17.60;99.90;;;;;;5062948;28;20256;-84
2021/04/16 08:38:08;;;;;;;5.80;1.60;;;18.00;99.90;;;;;;5040996;28;20206;-84
2021/04/16 08:40:42;;;;;;;2.30;1.10;;;18.70;99.90;;;;;;5042938;28;20213;-84
2021/04/16 08:43:14;;;;;;;1.53;1.43;;;18.30;99.90;;;;;;5040953;28;20266;-83
2021/04/16 08:45:41;;;;;;;2.13;1.50;;;18.90;99.90;;;;;;5040926;28;20189;-83
2021/04/16 08:48:32;;;;;;;5.13;1.20;;;18.50;99.90;;;;;;5042714;28;20283;-82
2021/04/16 08:51:03;;;;;;;1.73;1.10;;;18.30;99.40;;;;;;5044041;28;20225;-84
2021/04/16 08:53:30;;;;;;;2.60;1.03;;;18.10;98.90;;;;;;5059026;28;20236;-84
2021/04/16 08:55:55;;;;;;;3.17;0.90;;;17.50;99.90;;;;;;5024678;28;20232;-83
2021/04/16 08:58:30;;;;;;;3.13;1.03;;;18.20;99.60;;;;;;5043274;28;20222;-86
2021/04/16 09:00:58;;;;;;;2.27;0.80;;;18.30;99.00;;;;;;5044219;28;20218;-83
2021/04/16 09:03:44;;;;;;;1.60;0.97;;;17.80;98.10;;;;;;5046281;28;20562;-83
2021/04/16 09:06:24;;;;;;;1.60;0.87;;;18.00;98.10;;;;;;5045530;28;20224;-84
2021/04/16 09:08:51;;;;;;;2.73;1.03;;;17.30;99.10;;;;;;5063987;28;20282;-83
2021/04/16 09:11:54;;;;;;;1.00;0.90;;;17.50;99.90;;;;;;5047625;28;20734;-82
2021/04/16 09:14:26;;;;;;;3.13;1.23;;;17.80;99.90;;;;;;4977665;28;20227;-83
2021/04/16 09:16:56;;;;;;;1.83;0.70;;;17.30;99.90;;;;;;5036760;28;20302;-83
2021/04/16 09:19:25;;;;;;;1.40;1.30;;;17.10;99.90;;;;;;5048637;28;20228;-82
2021/04/16 09:22:03;;;;;;;1.17;0.87;;;16.30;99.90;;;;;;5048237;28;20200;-81
2021/04/16 09:24:57;;;;;;;3.00;1.50;;;15.90;99.90;;;;;;5048920;28;20272;-84
2021/04/16 09:27:26;;;;;;;2.80;1.63;;;15.70;99.90;;;;;;5047015;28;20225;-84
2021/04/16 09:30:11;;;;;;;4.23;1.60;;;16.00;99.90;;;;;;5067591;28;20235;-83
2021/04/16 09:32:53;;;;;;;2.03;0.77;;;15.60;99.90;;;;;;5051908;28;20333;-83
2021/04/16 09:35:19;;;;;;;2.10;1.03;;;15.70;99.90;;;;;;5068926;28;20204;-83
2021/04/16 09:38:12;;;;;;;5.13;1.10;;;16.20;99.90;;;;;;5051538;28;21304;-82
2021/04/16 09:40:39;;;;;;;6.70;1.63;;;16.30;99.90;;;;;;5044415;28;20229;-83
2021/04/16 09:43:10;;;;;;;1.33;1.17;;;16.50;99.90;;;;;;5046830;28;20192;-82
2021/04/16 09:45:40;;;;;;;2.70;1.30;;;16.00;99.90;;;;;;5051531;28;20197;-82
2021/04/16 09:48:46;;;;;;;1.30;0.97;;;16.10;99.90;;;;;;5050678;28;20697;-84
2021/04/16 09:51:34;;;;;;;1.27;0.93;;;16.00;99.90;;;;;;5054696;28;20335;-82
2021/04/16 09:54:09;;;;;;;2.00;0.80;;;16.70;99.90;;;;;;5052712;28;20208;-83
2021/04/16 09:56:59;;;;;;;1.77;0.90;;;16.60;99.90;;;;;;5054953;28;20971;-81
2021/04/16 09:59:30;;;;;;;1.80;1.47;;;15.80;99.90;;;;;;5070234;28;20283;-82
2021/04/16 10:02:30;;;;;;;3.20;0.90;;;15.80;99.90;;;;;;5071336;28;20213;-82
2021/04/16 10:05:28;;;;;;;4.37;0.83;;;15.70;99.90;;;;;;5047348;28;20225;-82
2021/04/16 10:08:01;;;;;;;3.03;0.93;;;15.00;99.90;;;;;;5051311;28;20232;-82
2021/04/16 10:10:39;;;;;;;1.87;0.97;;;15.10;99.90;;;;;;5052928;28;20221;-82
2021/04/16 10:13:23;;;;;;;1.80;1.10;;;15.40;99.90;;;;;;5051188;28;20192;-82
2021/04/16 10:15:54;;;;;;;2.83;0.90;;;15.20;99.90;;;;;;5054837;28;20681;-83
2021/04/16 10:18:42;;;;;;;1.60;0.97;;;15.40;99.90;;;;;;5068105;28;20749;-82
2021/04/16 10:21:13;;;;;;;0.93;0.83;;;15.60;99.90;;;;;;5069732;28;20294;-82
2021/04/16 10:23:41;;;;;;;2.27;0.63;;;15.40;99.90;;;;;;5052387;28;20217;-83
2021/04/16 10:48:44;;;;;;;1.80;1.40;;;14.80;99.90;;;;;;5066815;28;20307;-82
2021/04/16 12:38:42;;;;;;;1.10;1.00;;;11.10;99.90;;;;;;5062196;28;20771;-79
2021/04/16 12:41:15;;;;;;;0.50;0.50;;;11.10;99.90;;;;;;5063503;28;20298;-78
2021/04/16 12:43:41;;;;;;;4.00;1.00;;;11.30;99.90;;;;;;5063278;28;20212;-81
2021/04/16 12:46:09;;;;;;;0.80;0.67;;;11.30;99.90;;;;;;5030461;28;20209;-80
2021/04/16 12:48:35;;;;;;;2.20;2.00;;;11.30;99.90;;;;;;5051025;28;20199;-79
2021/04/16 12:51:00;;;;;;;2.33;1.33;;;11.20;99.90;;;;;;5048304;28;20236;-80
2021/04/16 12:53:26;;;;;;;2.07;1.10;;;11.10;99.90;;;;;;5066230;28;20221;-79
2021/04/16 12:55:52;;;;;;;0.67;0.60;;;11.20;99.90;;;;;;5029271;28;20221;-80
2021/04/16 12:58:28;;;;;;;0.63;0.57;;;11.20;99.90;;;;;;5030317;28;20231;-79
2021/04/16 13:00:55;;;;;;;3.23;0.70;;;11.30;99.90;;;;;;5046179;28;20185;-79
2021/04/16 13:03:35;;;;;;;2.83;0.70;;;11.20;99.90;;;;;;5014341;28;20197;-79
2021/04/16 13:06:02;;;;;;;1.83;0.50;;;11.30;99.90;;;;;;5043266;28;20254;-79
2021/04/16 13:08:28;;;;;;;1.60;1.03;;;11.20;99.90;;;;;;5043401;28;20212;-79
2021/04/16 13:10:53;;;;;;;1.37;0.90;;;11.10;99.90;;;;;;5044675;28;20217;-79
2021/04/16 13:13:19;;;;;;;5.40;1.63;;;11.10;99.90;;;;;;5065010;28;20231;-80
2021/04/16 13:15:47;;;;;;;0.90;0.83;;;11.10;99.90;;;;;;5031984;28;20637;-79
2021/04/16 13:18:26;;;;;;;1.27;0.83;;;11.20;99.90;;;;;;5029745;28;20710;-80
2021/04/16 13:20:52;;;;;;;2.37;1.27;;;11.20;99.90;;;;;;5063575;28;20213;-79
2021/04/16 13:23:18;;;;;;;3.83;0.90;;;11.10;99.90;;;;;;5044520;28;20251;-80
2021/04/16 13:25:44;;;;;;;2.47;1.07;;;10.90;99.90;;;;;;5031286;28;20228;-80
2021/04/16 13:28:10;;;;;;;4.33;0.93;;;10.80;99.90;;;;;;5025822;28;20287;-81
2021/04/16 13:30:36;;;;;;;3.73;1.30;;;10.80;99.90;;;;;;5043898;28;20200;-80
2021/04/16 13:33:07;;;;;;;2.87;1.10;;;11.10;99.90;;;;;;5039345;28;20712;-79
2021/04/16 13:35:41;;;;;;;0.93;0.73;;;11.30;99.90;;;;;;5044495;28;20213;-79
2021/04/16 13:38:13;;;;;;;2.33;1.20;;;11.20;99.90;;;;;;5044847;28;20461;-80
2021/04/16 13:40:39;;;;;;;3.80;0.60;;;11.00;99.90;;;;;;5045614;28;20229;-78
2021/04/16 13:43:05;;;;;;;1.10;1.00;;;10.80;99.90;;;;;;5046258;28;20208;-79
2021/04/16 13:45:31;;;;;;;0.70;0.70;;;10.80;99.90;;;;;;5047678;28;20585;-79
2021/04/16 13:47:57;;;;;;;2.17;1.10;;;10.90;99.90;;;;;;5028438;28;21308;-79
2021/04/16 13:50:23;;;;;;;0.80;0.80;;;11.00;99.90;;;;;;5030306;28;20271;-80
2021/04/16 13:52:49;;;;;;;1.87;0.90;;;11.00;99.90;;;;;;5042901;28;20324;-78
2021/04/16 13:55:17;;;;;;;1.77;0.90;;;11.00;99.90;;;;;;5043384;28;21160;-78
2021/04/16 13:57:43;;;;;;;2.03;1.23;;;10.90;99.90;;;;;;5044449;28;20210;-79
2021/04/16 14:00:13;;;;;;;1.10;0.50;;;10.90;99.90;;;;;;5044028;28;20229;-79
2021/04/16 14:02:46;;;;;;;3.03;0.87;;;11.00;99.90;;;;;;5044090;28;20221;-79
2021/04/16 14:05:18;;;;;;;5.67;1.43;;;11.00;99.90;;;;;;5063807;28;20421;-79
2021/04/16 14:07:45;;;;;;;0.40;0.40;;;10.90;99.90;;;;;;5047111;28;20287;-81
2021/04/16 14:10:13;;;;;;;0.73;0.70;;;10.90;99.90;;;;;;5042668;28;25791;-78
2021/04/16 14:12:38;;;;;;;3.07;1.83;;;11.00;99.90;;;;;;5047654;28;20206;-79
2021/04/16 14:15:06;;;;;;;2.23;1.83;;;10.90;99.90;;;;;;5045240;28;20224;-78
2021/04/16 14:17:45;;;;;;;1.73;1.57;;;10.80;99.90;;;;;;5046471;28;20221;-78
2021/04/16 14:20:37;;;;;;;3.73;2.33;;;11.00;99.90;;;;;;5044870;28;20240;-77
2021/04/16 14:23:04;;;;;;;3.47;1.10;;;10.70;99.90;;;;;;5045988;28;20221;-79
2021/04/16 14:25:37;;;;;;;1.30;1.03;;;10.80;99.90;;;;;;5043244;28;20245;-81
2021/04/16 14:28:06;;;;;;;14.20;1.63;;;10.80;99.90;;;;;;5049764;28;20232;-79
2021/04/16 14:30:34;;;;;;;4.33;1.23;;;10.90;99.90;;;;;;5032376;28;20583;-82
2021/04/16 14:33:04;;;;;;;2.67;1.00;;;10.90;99.90;;;;;;5065499;28;20307;-79
2021/04/16 14:35:31;;;;;;;4.03;1.70;;;10.80;99.90;;;;;;5065452;28;20220;-80
2021/04/16 14:37:59;;;;;;;7.23;1.23;;;10.70;99.90;;;;;;5044501;28;20276;-78
2021/04/16 14:40:25;;;;;;;1.70;0.97;;;10.60;99.90;;;;;;5046096;28;20523;-78
2021/04/16 14:42:52;;;;;;;15.03;1.43;;;10.80;99.90;;;;;;5050407;28;20303;-80
2021/04/16 14:45:28;;;;;;;4.63;1.23;;;10.90;99.90;;;;;;5046958;28;20217;-78
2021/04/16 14:47:56;;;;;;;3.00;1.40;;;10.80;99.90;;;;;;5047349;28;20370;-78
2021/04/16 14:50:23;;;;;;;5.97;0.80;;;10.80;99.90;;;;;;5014334;28;21212;-78
2021/04/16 14:52:50;;;;;;;2.60;1.03;;;10.90;99.90;;;;;;5047382;28;20243;-79
2021/04/16 14:55:28;;;;;;;1.63;0.90;;;10.80;99.90;;;;;;5045996;28;20232;-80
2021/04/16 14:57:56;;;;;;;1.70;1.07;;;10.70;99.90;;;;;;5064623;28;20202;-78
2021/04/16 15:00:25;;;;;;;1.53;0.80;;;10.70;99.90;;;;;;5050188;28;20217;-81
2021/04/16 15:02:52;;;;;;;1.97;1.60;;;10.50;99.90;;;;;;5045567;28;20888;-79
2021/04/16 15:05:19;;;;;;;4.87;1.40;;;10.80;99.90;;;;;;5048140;28;20228;-80
2021/04/16 15:07:58;;;;;;;4.13;1.00;;;10.80;99.90;;;;;;5031426;28;20217;-81
2021/04/16 15:10:34;;;;;;;6.93;1.20;;;10.90;99.90;;;;;;5067393;28;20231;-81
2021/04/16 15:13:00;;;;;;;4.83;1.13;;;10.70;99.90;;;;;;5062505;28;20176;-79
2021/04/16 15:15:36;;;;;;;1.73;1.00;;;10.70;99.90;;;;;;5031582;28;20252;-83
2021/04/16 15:18:06;;;;;;;2.50;1.43;;;10.60;99.90;;;;;;5046705;28;20328;-79